Latest Weather Observations for Richmond

IDN60901

Issued at 8:51 am EST Thursday 18 July 2024 (issued every 10 minutes, with the page automatically refreshed every 10 minutes)

About weather observations | Map of Sydney area stations | Latest observations for Sydney area | Other Formats
Station Details ID: 067105 Name: RICHMOND RAAF Lat: -33.60 Lon: 150.78 Height: 19.0 m
Data from the previous 72 hours. | See also: Recent months at Richmond
Date/Time
EST
Temp
°C
App
Temp
°C
Dew
Point
°C
Rel
Hum
%
Delta-T
°C
Wind Press
QNH
hPa
Press
MSL
hPa
Rain since
9am
mm
Dir  Spd
km/h
Gust
km/h
Spd
kts
Gust
kts
18/08:30am 9.2 9.0 9.1 99 0.0 CALM 0 0 0 0 1013.3 1013.3 0.0
18/08:00am 7.1 6.0 7.0 99 0.0 SW 2 6 1 3 1013.2 1013.2 0.0
18/07:30am 4.9 3.7 4.8 99 0.0 CALM 0 0 0 0 1013.1 1013.1 0.0
18/07:00am 5.2 4.1 5.1 99 0.0 CALM 0 0 0 0 1012.7 1012.7 0.0
18/06:30am 5.5 4.1 5.4 99 0.0 ESE 2 7 1 4 1012.6 1012.6 0.0
18/06:00am 6.0 5.1 5.9 99 0.0 CALM 0 0 0 0 1012.4 1012.4 0.0
18/05:30am 5.9 4.6 5.8 99 0.0 WNW 2 6 1 3 1012.3 1012.3 0.0
18/05:25am 6.0 4.7 5.9 99 0.0 W 2 6 1 3 1012.2 1012.2 0.0
18/05:06am 6.1 5.2 6.0 99 0.0 CALM 0 0 0 0 1012.2 1012.2 0.0
18/05:00am 6.1 5.2 6.0 99 0.0 CALM 0 0 0 0 1012.2 1012.2 0.0
18/04:30am 6.8 6.0 6.7 99 0.0 CALM 0 0 0 0 1012.0 1012.0 0.0
18/04:00am 7.6 7.0 7.5 99 0.0 CALM 0 0 0 0 1011.8 1011.8 0.0
18/03:30am 8.5 8.1 8.2 98 0.1 CALM 0 0 0 0 1011.6 1011.6 0.0
18/03:00am 9.1 8.1 8.8 98 0.1 NNW 4 7 2 4 1011.6 1011.6 0.0
18/02:30am 9.3 9.1 9.0 98 0.1 CALM 0 0 0 0 1011.5 1011.5 0.0
18/02:00am 8.6 8.2 8.3 98 0.1 CALM 0 0 0 0 1011.4 1011.4 0.0
18/01:30am 8.6 8.1 8.0 96 0.3 CALM 0 0 0 0 1011.2 1011.2 0.0
18/01:00am 8.5 7.9 7.6 94 0.4 CALM 0 0 0 0 1011.0 1011.0 0.0
18/12:30am 9.6 9.1 8.0 90 0.8 CALM 0 0 0 0 1011.0 1011.0 0.0
18/12:00am 11.4 11.2 9.0 85 1.2 CALM 0 0 0 0 1011.1 1011.1 0.0
 
Date/Time
EST
Temp
°C
App
Temp
°C
Dew
Point
°C
Rel
Hum
%
Delta-T
°C
Wind Press
QNH
hPa
Press
MSL
hPa
Rain since
9am
mm
Dir  Spd
km/h
Gust
km/h
Spd
kts
Gust
kts
17/11:30pm 11.8 11.6 9.2 84 1.3 CALM 0 0 0 0 1011.2 1011.2 0.0
17/11:00pm 12.4 11.0 8.9 79 1.8 S 6 7 3 4 1011.3 1011.3 0.0
17/10:30pm 12.5 12.4 9.3 81 1.6 CALM 0 0 0 0 1011.2 1011.2 0.0
17/10:00pm 12.4 12.2 9.2 81 1.6 CALM 0 0 0 0 1011.0 1011.0 0.0
17/09:30pm 13.0 12.7 8.5 74 2.2 CALM 0 4 0 2 1010.7 1010.7 0.0
17/09:00pm 13.9 12.3 7.9 67 3.0 WSW 6 9 3 5 1010.5 1010.5 0.0
17/08:30pm 14.5 12.8 8.2 66 3.2 SW 7 9 4 5 1009.9 1009.9 0.0
17/08:00pm 14.4 12.3 8.1 66 3.2 SSW 9 15 5 8 1009.7 1009.7 0.0
17/07:30pm 14.9 11.9 7.7 62 3.6 S 13 19 7 10 1009.4 1009.4 0.0
17/07:00pm 14.7 12.4 7.3 61 3.6 SW 9 13 5 7 1008.7 1008.7 0.0
17/06:30pm 14.5 12.2 7.3 62 3.5 WSW 9 11 5 6 1008.1 1008.1 0.0
17/06:00pm 14.7 12.4 7.3 61 3.7 SW 9 13 5 7 1007.5 1007.5 0.0
17/05:30pm 15.6 12.8 7.1 57 4.2 SW 11 15 6 8 1007.0 1007.0 0.0
17/05:00pm 16.2 13.0 6.9 54 4.6 SW 13 20 7 11 1006.6 1006.6 0.0
17/04:30pm 16.3 13.1 7.0 54 4.6 WSW 13 17 7 9 1006.2 1006.2 0.0
17/04:00pm 17.3 14.1 6.8 50 5.2 WSW 13 20 7 11 1006.0 1006.0 0.0
17/03:30pm 18.3 14.4 7.1 48 5.6 SW 17 24 9 13 1005.8 1005.8 0.0
17/03:00pm 17.7 13.3 6.6 48 5.5 SW 19 28 10 15 1005.4 1005.4 0.0
17/02:30pm 17.8 13.8 6.7 48 5.5 SW 17 22 9 12 1005.2 1005.2 0.0
17/02:00pm 19.2 14.7 7.0 45 6.2 SW 20 30 11 16 1004.9 1004.9 0.0
17/01:30pm 19.0 14.1 6.8 45 6.1 SW 22 32 12 17 1004.7 1004.7 0.0
17/01:00pm 18.7 14.1 6.5 45 6.1 SW 20 32 11 17 1004.8 1004.8 0.0
17/12:30pm 18.3 14.2 6.2 45 6.0 SW 17 28 9 15 1005.1 1005.1 0.0
17/12:00pm 18.5 13.6 6.7 46 5.9 SW 22 32 12 17 1005.4 1005.4 0.0
17/11:30am 18.1 13.5 6.6 47 5.7 SW 20 30 11 16 1005.9 1005.9 0.0
17/11:00am 17.7 13.3 6.6 48 5.5 SW 19 30 10 16 1006.2 1006.2 0.0
17/10:30am 17.6 13.7 7.1 50 5.3 WSW 17 26 9 14 1006.5 1006.5 0.0
17/10:00am 16.6 14.8 8.1 57 4.3 WNW 7 13 4 7 1006.5 1006.5 0.0
17/09:30am 15.0 13.6 8.7 66 3.2 NW 6 9 3 5 1006.4 1006.4 0.0
17/09:00am 13.4 13.2 9.1 75 2.2 CALM 0 0 0 0 1006.3 1006.3 0.0
17/08:30am 9.8 9.2 8.9 94 0.4 ESE 2 7 1 4 1006.0 1006.0 0.0
17/08:00am 8.3 7.8 8.0 98 0.1 CALM 0 0 0 0 1005.7 1005.7 0.0
17/07:30am 6.3 4.3 6.2 99 0.0 N 6 9 3 5 1005.4 1005.4 0.0
17/07:00am 5.6 3.8 5.5 99 0.0 N 4 9 2 5 1005.1 1005.1 0.0
17/06:30am 4.9 3.7 4.6 98 0.1 CALM 0 0 0 0 1005.0 1005.0 0.0
17/06:00am 5.5 4.4 5.2 98 0.1 CALM 0 0 0 0 1004.7 1004.7 0.0
17/05:30am 5.7 4.7 5.4 98 0.1 CALM 0 0 0 0 1004.5 1004.5 0.0
17/05:00am 6.8 5.5 6.1 95 0.3 N 2 7 1 4 1004.2 1004.2 0.0
17/04:30am 7.3 6.5 6.6 95 0.3 CALM 0 0 0 0 1004.0 1004.0 0.0
17/04:00am 8.6 7.9 6.9 89 0.8 CALM 0 0 0 0 1004.1 1004.1 0.0
17/03:30am 8.0 6.0 6.3 89 0.8 N 6 7 3 4 1004.0 1004.0 0.0
17/03:00am 8.4 7.3 5.0 79 1.5 CALM 0 0 0 0 1004.1 1004.1 0.0
17/02:30am 9.5 7.3 5.3 75 1.9 NW 6 7 3 4 1003.9 1003.9 0.0
17/02:00am 10.9 8.3 5.9 71 2.3 WNW 9 11 5 6 1004.0 1004.0 0.0
17/01:30am 12.0 8.7 6.5 69 2.6 WNW 13 17 7 9 1003.9 1003.9 0.0
17/01:00am 12.3 9.8 6.6 68 2.7 WNW 9 15 5 8 1003.9 1003.9 0.0
17/12:30am 11.8 8.8 6.1 68 2.7 NW 11 19 6 10 1004.0 1004.0 0.0
17/12:00am 12.1 8.8 6.2 67 2.8 WNW 13 17 7 9 1004.2 1004.2 0.0
 
Date/Time
EST
Temp
°C
App
Temp
°C
Dew
Point
°C
Rel
Hum
%
Delta-T
°C
Wind Press
QNH
hPa
Press
MSL
hPa
Rain since
9am
mm
Dir  Spd
km/h
Gust
km/h
Spd
kts
Gust
kts
16/11:30pm 12.7 9.8 6.3 65 3.0 WNW 11 15 6 8 1004.4 1004.4 0.0
16/11:00pm 12.4 9.2 6.7 68 2.7 NW 13 15 7 8 1004.6 1004.6 0.0
16/10:30pm 12.4 9.1 6.5 67 2.8 WNW 13 17 7 9 1004.4 1004.4 0.0
16/10:00pm 12.7 8.7 6.5 66 3.0 W 17 20 9 11 1004.3 1004.3 0.0
16/09:30pm 11.8 9.6 6.3 69 2.6 NW 7 15 4 8 1004.2 1004.2 0.0
16/09:00pm 11.6 9.7 6.5 71 2.4 WNW 6 9 3 5 1004.0 1004.0 0.0
16/08:30pm 10.4 8.4 6.4 76 1.9 NNW 6 11 3 6 1003.8 1003.8 0.0
16/08:00pm 10.3 7.7 6.1 75 2.0 N 9 13 5 7 1003.7 1003.7 0.0
16/07:30pm 9.8 7.1 5.8 76 1.8 N 9 13 5 7 1003.5 1003.5 0.0
16/07:00pm 10.6 7.6 5.8 72 2.2 N 11 15 6 8 1003.3 1003.3 0.0
16/06:30pm 10.2 7.1 5.4 72 2.2 NNW 11 15 6 8 1003.2 1003.2 0.0
16/06:00pm 10.1 6.9 5.1 71 2.3 NW 11 15 6 8 1002.9 1002.9 0.0
16/05:30pm 10.9 7.4 5.4 69 2.5 NW 13 19 7 10 1002.8 1002.8 0.0
16/05:00pm 12.4 6.8 5.3 62 3.3 WNW 24 35 13 19 1002.4 1002.4 0.0
16/04:30pm 13.5 7.5 5.4 58 3.8 WNW 26 35 14 19 1002.0 1002.0 0.0
16/04:00pm 14.2 8.2 5.3 55 4.2 WNW 26 37 14 20 1001.5 1001.5 0.0
16/03:30pm 13.9 7.9 5.3 56 4.0 WNW 26 39 14 21 1001.2 1001.2 0.0
16/03:00pm 15.2 9.5 5.1 51 4.8 WNW 24 37 13 20 1000.9 1000.9 0.0
16/02:30pm 14.7 8.7 5.2 53 4.5 WNW 26 39 14 21 1000.8 1000.8 0.0
16/02:00pm 14.8 8.8 5.3 53 4.5 W 26 39 14 21 1000.7 1000.7 0.0
16/01:30pm 15.4 9.0 5.3 51 4.8 W 28 41 15 22 1000.7 1000.7 0.0
16/01:00pm 14.4 8.3 5.0 53 4.4 WNW 26 39 14 21 1000.8 1000.8 0.0
16/12:30pm 14.1 7.3 5.2 55 4.2 WNW 30 43 16 23 1001.1 1001.1 0.0
16/12:00pm 14.2 7.5 5.6 56 4.1 WNW 30 41 16 22 1001.6 1001.6 0.0
16/11:30am 13.1 7.0 4.8 57 3.8 WNW 26 41 14 22 1001.9 1001.9 0.0
16/11:00am 12.9 7.2 4.8 58 3.7 WNW 24 35 13 19 1002.1 1002.1 0.0
16/10:30am 12.9 7.2 4.8 58 3.7 WNW 24 35 13 19 1002.4 1002.4 0.0
16/10:00am 13.1 6.5 4.3 55 4.0 WNW 28 43 15 23 1002.2 1002.2 0.0
16/09:30am 13.3 7.5 4.5 55 4.0 WNW 24 41 13 22 1002.1 1002.1 0.0
16/09:26am 13.1 8.0 4.0 54 4.1 NW 20 41 11 22 1002.1 1002.1 0.0
16/09:00am 12.4 7.9 4.4 58 3.7 NW 17 22 9 12 1001.9 1001.9 0.0
16/08:30am 12.0 7.5 4.2 59 3.5 NW 17 28 9 15 1001.7 1001.7 0.0
16/08:00am 11.8 6.2 3.6 57 3.7 NW 22 41 12 22 1001.5 1001.5 0.0
16/07:30am 11.5 6.8 3.3 57 3.6 NW 17 28 9 15 1001.4 1001.4 0.0
16/07:00am 11.0 6.3 3.3 59 3.4 NW 17 26 9 14 1001.2 1001.2 0.0
16/06:30am 9.8 5.9 3.3 64 2.8 NNW 13 19 7 10 1000.9 1000.9 0.0
16/06:00am 10.6 6.6 2.9 59 3.4 NNW 13 20 7 11 1000.9 1000.9 0.0
16/05:30am 9.8 5.8 2.9 62 3.0 N 13 17 7 9 1000.8 1000.8 0.0
16/05:00am 11.1 5.9 2.4 55 3.8 NW 19 33 10 18 1000.7 1000.7 0.0
16/04:30am 10.2 6.1 2.3 58 3.4 NW 13 20 7 11 1000.7 1000.7 0.0
16/04:00am 9.9 4.6 2.0 58 3.3 NW 19 32 10 17 1001.1 1001.1 0.0
16/03:30am 9.8 4.6 2.4 60 3.1 NW 19 26 10 14 1001.2 1001.2 0.0
16/03:00am 8.9 5.2 2.5 64 2.7 NW 11 15 6 8 1001.7 1001.7 0.0
16/02:30am 9.1 5.0 2.4 63 2.8 NNW 13 22 7 12 1001.8 1001.8 0.0
16/02:00am 10.5 5.2 2.8 59 3.3 NW 20 30 11 16 1002.2 1002.2 0.0
16/01:30am 9.8 5.1 2.9 62 3.0 NW 17 26 9 14 1002.5 1002.5 0.0
16/01:00am 9.7 4.9 2.6 61 3.0 NW 17 24 9 13 1002.9 1002.9 0.0
16/12:30am 10.0 4.6 2.6 60 3.2 NW 20 30 11 16 1003.1 1003.1 0.0
16/12:00am 9.2 5.2 2.8 64 2.7 NW 13 20 7 11 1003.6 1003.6 0.0
 
Date/Time
EST
Temp
°C
App
Temp
°C
Dew
Point
°C
Rel
Hum
%
Delta-T
°C
Wind Press
QNH
hPa
Press
MSL
hPa
Rain since
9am
mm
Dir  Spd
km/h
Gust
km/h
Spd
kts
Gust
kts
15/11:30pm 9.6 5.2 2.9 63 2.9 NW 15 20 8 11 1004.1 1004.1 0.0
15/11:00pm 10.1 5.8 3.2 62 3.0 NW 15 20 8 11 1004.6 1004.6 0.0
15/10:30pm 9.7 5.8 3.4 65 2.7 NNW 13 20 7 11 1005.0 1005.0 0.0
15/10:00pm 10.5 5.3 3.3 61 3.2 NW 20 32 11 17 1005.2 1005.2 0.0
15/09:30pm 8.7 5.2 3.5 70 2.2 NNW 11 15 6 8 1005.6 1005.6 0.0
15/09:00pm 8.2 5.1 3.5 72 2.0 NW 9 13 5 7 1005.7 1005.7 0.0
15/08:30pm 8.7 4.9 3.7 71 2.2 NNW 13 17 7 9 1005.8 1005.8 0.0
15/08:00pm 8.5 5.3 3.1 69 2.3 NW 9 13 5 7 1006.1 1006.1 0.0
15/07:30pm 9.1 4.8 3.1 66 2.6 NNW 15 20 8 11 1006.2 1006.2 0.0
15/07:00pm 8.9 4.9 2.7 65 2.6 NW 13 17 7 9 1006.2 1006.2 0.0
15/06:30pm 9.3 4.9 2.6 63 2.8 NNW 15 19 8 10 1006.2 1006.2 0.0
15/06:00pm 9.8 7.0 1.9 58 3.3 NNW 6 9 3 5 1006.3 1006.3 0.0
15/05:30pm 10.8 7.1 2.1 55 3.7 NW 11 17 6 9 1006.1 1006.1 0.0
15/05:00pm 10.9 6.7 1.7 53 3.9 WNW 13 20 7 11 1006.0 1006.0 0.0
15/04:30pm 12.4 6.9 2.0 49 4.5 WNW 20 33 11 18 1005.9 1005.9 0.0
15/04:00pm 13.0 4.6 1.7 46 4.9 WNW 35 48 19 26 1005.9 1005.9 0.0
15/03:30pm 14.1 6.8 2.4 45 5.2 WNW 30 39 16 21 1005.9 1005.9 0.0
15/03:02pm 14.2 6.3 2.1 44 5.3 WNW 33 52 18 28 1005.9 1005.9 0.0
15/03:00pm 14.0 5.7 2.0 44 5.3 WNW 35 52 19 28 1005.8 1005.8 0.0
15/02:30pm 14.9 7.9 1.8 41 5.7 W 28 39 15 21 1005.9 1005.9 0.0
15/02:00pm 14.6 6.5 1.2 40 5.8 WNW 33 46 18 25 1005.9 1005.9 0.0
15/01:30pm 14.9 8.3 1.8 41 5.7 W 26 39 14 21 1006.1 1006.1 0.0
15/01:00pm 15.3 8.7 1.8 40 6.0 W 26 41 14 22 1006.3 1006.3 0.0
15/12:40pm 14.7 6.9 1.6 41 5.7 W 32 50 17 27 1006.6 1006.6 0.0
15/12:30pm 14.8 6.1 2.0 42 5.6 W 37 54 20 29 1006.6 1006.6 0.0
15/12:19pm 14.4 6.0 1.3 41 5.7 W 35 56 19 30 1006.6 1006.6 0.0
15/12:00pm 14.4 6.1 2.0 43 5.5 W 35 48 19 26 1006.9 1006.9 0.0
15/11:50am 14.3 7.3 1.9 43 5.4 WNW 28 46 15 25 1007.1 1007.1 0.0
15/11:30am 13.9 6.2 2.2 45 5.1 W 32 46 17 25 1007.6 1007.6 0.0
15/11:00am 13.7 6.3 1.7 44 5.2 WNW 30 44 16 24 1008.0 1008.0 0.0
15/10:40am 13.2 6.1 1.2 44 5.1 W 28 50 15 27 1008.2 1008.2 0.0
15/10:30am 13.8 7.3 2.4 46 5.0 W 26 43 14 23 1008.4 1008.4 0.0
15/10:00am 13.0 7.1 2.0 47 4.8 WNW 22 32 12 17 1008.5 1008.5 0.0
15/09:30am 12.4 7.1 2.0 49 4.5 W 19 28 10 15 1008.4 1008.4 0.0
15/09:00am 11.5 7.7 1.5 50 4.2 SW 11 20 6 11 1008.5 1008.5 0.0

Latest Capital City Observations: Canberra | Sydney | Melbourne | Brisbane | Adelaide | Perth | Hobart | Darwin

Other formats

Comma delimited format used in spreadsheet applications
http://www.bom.gov.au/fwo/IDN60901/IDN60901.95753.axf

JavaScript Object Notation format (JSON) in row-major order
http://www.bom.gov.au/fwo/IDN60901/IDN60901.95753.json

Data quality

Most of these data are generated automatically and are frequently updated. Quality checks on data are not normally performed. It is possible for incorrect values to appear. Refer to information at About Latest Weather Observations and please check the disclaimer before using these data.